createdAt,value
2022-07-29T00:01:44.568Z,100103.03
2022-07-29T00:04:13.792Z,100103.41
2022-07-29T00:06:42.387Z,100104.56
2022-07-29T00:09:11.211Z,100102.47
2022-07-29T00:11:39.933Z,100098.97
2022-07-29T00:14:08.241Z,100101.34
2022-07-29T00:16:36.401Z,100106.81
2022-07-29T00:19:05.460Z,100106.97
2022-07-29T00:21:35.971Z,100105.06
2022-07-29T00:24:06.192Z,100109.84
2022-07-29T00:26:34.670Z,100108.00
2022-07-29T00:29:33.073Z,100109.44
2022-07-29T00:31:53.513Z,100113.38
2022-07-29T00:34:40.415Z,100115.63
2022-07-29T00:37:10.016Z,100106.25
2022-07-29T00:39:39.306Z,100102.75
2022-07-29T00:42:08.949Z,100116.84
2022-07-29T00:44:41.903Z,100107.38
2022-07-29T00:47:11.928Z,100101.06
2022-07-29T00:49:42.327Z,100105.34
2022-07-29T00:52:12.337Z,100109.81
2022-07-29T00:54:44.523Z,100101.69
2022-07-29T00:57:14.290Z,100105.44
2022-07-29T00:59:43.773Z,100108.47
2022-07-29T01:02:12.287Z,100110.31
2022-07-29T01:04:40.939Z,100101.72
2022-07-29T01:07:11.330Z,100099.62
2022-07-29T01:09:46.160Z,100102.81
2022-07-29T01:12:19.435Z,100093.78
2022-07-29T01:14:48.683Z,100099.78
2022-07-29T01:17:35.643Z,100097.09
2022-07-29T01:20:23.871Z,100092.69
2022-07-29T01:23:05.976Z,100101.16
2022-07-29T01:25:33.958Z,100094.56
2022-07-29T01:28:21.134Z,100100.91
2022-07-29T01:30:53.118Z,100096.94
2022-07-29T01:33:40.950Z,100097.56
2022-07-29T01:36:16.586Z,100100.59
2022-07-29T01:38:55.741Z,100094.41
2022-07-29T01:41:29.525Z,100095.00
2022-07-29T01:44:04.904Z,100097.06
2022-07-29T01:46:39.446Z,100095.97
2022-07-29T01:49:26.556Z,100092.06
2022-07-29T01:52:13.353Z,100089.09
2022-07-29T01:54:47.189Z,100093.31
2022-07-29T01:57:20.468Z,100091.91
2022-07-29T01:59:50.008Z,100093.47
2022-07-29T02:02:19.539Z,100088.81
2022-07-29T02:04:51.855Z,100087.41
2022-07-29T02:07:22.442Z,100086.97
2022-07-29T02:09:52.266Z,100093.75
2022-07-29T02:12:21.733Z,100085.88
2022-07-29T02:14:53.017Z,100086.28
2022-07-29T02:17:29.631Z,100086.56
2022-07-29T02:20:01.349Z,100087.38
2022-07-29T02:22:31.606Z,100085.00
2022-07-29T02:25:00.080Z,100082.78
2022-07-29T02:27:30.160Z,100081.53
2022-07-29T02:29:59.116Z,100081.78
2022-07-29T02:32:28.913Z,100074.37
2022-07-29T02:35:02.808Z,100079.56
2022-07-29T02:37:32.590Z,100086.59
2022-07-29T02:40:01.070Z,100083.22
2022-07-29T02:42:30.021Z,100072.13
2022-07-29T02:44:58.096Z,100074.22
2022-07-29T02:47:41.365Z,100077.16
2022-07-29T02:50:14.593Z,100074.66
2022-07-29T02:52:45.949Z,100076.03
2022-07-29T02:55:23.537Z,100074.22
2022-07-29T02:58:08.418Z,100079.28
2022-07-29T03:00:39.025Z,100084.19
2022-07-29T03:03:10.585Z,100077.59
2022-07-29T03:05:39.869Z,100078.03
2022-07-29T03:08:10.451Z,100072.81
2022-07-29T03:10:44.536Z,100076.72
2022-07-29T03:13:14.243Z,100078.16
2022-07-29T03:15:47.054Z,100085.47
2022-07-29T03:18:16.044Z,100077.69
2022-07-29T03:20:44.976Z,100080.13
2022-07-29T03:23:13.061Z,100077.31
2022-07-29T03:25:41.090Z,100085.75
2022-07-29T03:28:10.848Z,100082.38
2022-07-29T03:30:39.129Z,100088.56
2022-07-29T03:33:13.584Z,100085.84
2022-07-29T03:35:44.239Z,100084.56
2022-07-29T03:38:12.811Z,100082.34
2022-07-29T03:40:50.177Z,100084.25
2022-07-29T03:43:19.655Z,100085.97
2022-07-29T03:45:50.410Z,100091.59
2022-07-29T03:48:19.256Z,100089.28
2022-07-29T03:50:48.097Z,100091.47
2022-07-29T03:53:17.022Z,100080.81
2022-07-29T03:55:48.594Z,100080.13
2022-07-29T03:58:17.523Z,100086.72
2022-07-29T04:00:46.271Z,100095.03
2022-07-29T04:03:15.806Z,100093.88
2022-07-29T04:05:44.053Z,100097.97
2022-07-29T04:08:12.164Z,100095.31
2022-07-29T04:10:42.556Z,100097.63
2022-07-29T04:13:10.787Z,100092.97
2022-07-29T04:15:39.047Z,100098.75
2022-07-29T04:18:09.293Z,100104.56
2022-07-29T04:20:36.921Z,100099.28
2022-07-29T04:23:05.535Z,100103.56
2022-07-29T04:25:34.350Z,100094.81
2022-07-29T04:28:02.484Z,100094.75
2022-07-29T04:30:31.668Z,100096.00
2022-07-29T04:33:02.033Z,100098.59
2022-07-29T04:35:38.057Z,100093.00
2022-07-29T04:38:15.885Z,100099.03
2022-07-29T04:40:45.463Z,100098.97
2022-07-29T04:43:22.472Z,100089.69
2022-07-29T04:45:51.490Z,100099.94
2022-07-29T04:48:25.300Z,100100.94
2022-07-29T04:50:57.676Z,100090.25
2022-07-29T04:53:27.975Z,100099.53
2022-07-29T04:55:56.693Z,100096.41
2022-07-29T04:58:25.025Z,100085.47
2022-07-29T05:00:55.096Z,100091.22
2022-07-29T05:03:23.340Z,100094.84
2022-07-29T05:05:52.472Z,100094.19
2022-07-29T05:08:21.977Z,100096.25
2022-07-29T05:10:50.237Z,100098.09
2022-07-29T05:13:18.414Z,100091.66
2022-07-29T05:15:47.351Z,100096.56
2022-07-29T05:18:15.553Z,100099.47
2022-07-29T05:20:43.511Z,100096.84
2022-07-29T05:23:13.929Z,100093.50
2022-07-29T05:25:44.081Z,100101.56
2022-07-29T05:28:13.792Z,100096.22
2022-07-29T05:30:42.513Z,100093.94
2022-07-29T05:33:34.712Z,100094.59
2022-07-29T05:36:01.078Z,100095.22
2022-07-29T05:38:30.272Z,100096.53
2022-07-29T05:41:01.681Z,100100.97
2022-07-29T05:43:30.161Z,100091.06
2022-07-29T05:45:59.373Z,100102.22
2022-07-29T05:48:27.085Z,100098.00
2022-07-29T05:50:55.759Z,100101.03
2022-07-29T05:53:24.360Z,100101.66
2022-07-29T05:55:53.225Z,100096.94
2022-07-29T05:58:21.523Z,100107.00
2022-07-29T06:00:50.143Z,100103.84
2022-07-29T06:03:18.981Z,100100.56
2022-07-29T06:05:47.173Z,100100.72
2022-07-29T06:08:15.393Z,100108.75
2022-07-29T06:10:44.957Z,100098.50
2022-07-29T06:13:14.085Z,100112.94
2022-07-29T06:15:44.481Z,100116.03
2022-07-29T06:18:14.448Z,100112.31
2022-07-29T06:20:42.480Z,100110.69
2022-07-29T06:23:11.242Z,100110.63
2022-07-29T06:25:41.512Z,100116.03
2022-07-29T06:28:09.167Z,100113.56
2022-07-29T06:30:38.579Z,100118.28
2022-07-29T06:33:09.480Z,100117.56
2022-07-29T06:35:41.863Z,100117.38
2022-07-29T06:38:31.714Z,100117.56
2022-07-29T06:41:01.918Z,100120.22
2022-07-29T06:43:35.198Z,100130.34
2022-07-29T06:46:05.068Z,100137.53
2022-07-29T06:48:34.329Z,100128.84
2022-07-29T06:51:02.847Z,100131.16
2022-07-29T06:53:32.100Z,100125.41
2022-07-29T06:56:02.228Z,100132.28
2022-07-29T06:58:30.428Z,100136.34
2022-07-29T07:00:59.743Z,100131.63
2022-07-29T07:03:29.070Z,100128.91
2022-07-29T07:05:59.561Z,100127.44
2022-07-29T07:08:28.576Z,100129.09
2022-07-29T07:10:58.266Z,100125.47
2022-07-29T07:13:26.989Z,100126.53
2022-07-29T07:15:56.819Z,100120.84
2022-07-29T07:18:25.865Z,100126.22
2022-07-29T07:20:53.917Z,100125.19
2022-07-29T07:23:22.515Z,100120.34
2022-07-29T07:26:06.999Z,100124.03
2022-07-29T07:28:36.321Z,100120.56
2022-07-29T07:31:04.776Z,100125.41
2022-07-29T07:33:33.203Z,100127.06
2022-07-29T07:36:06.003Z,100117.19
2022-07-29T07:38:34.468Z,100118.84
2022-07-29T07:41:04.357Z,100117.16
2022-07-29T07:43:32.685Z,100112.97
2022-07-29T07:46:01.356Z,100109.56
2022-07-29T07:48:30.488Z,100114.63
2022-07-29T07:50:58.313Z,100114.03
2022-07-29T07:53:27.519Z,100114.31
2022-07-29T07:56:12.667Z,100108.66
2022-07-29T07:58:41.303Z,100113.12
2022-07-29T08:01:10.869Z,100109.16
2022-07-29T08:03:40.026Z,100102.84
2022-07-29T08:06:08.271Z,100107.03
2022-07-29T08:08:36.024Z,100109.34
2022-07-29T08:11:09.355Z,100092.56
2022-07-29T08:13:39.321Z,100103.47
2022-07-29T08:16:16.277Z,100100.91
2022-07-29T08:18:47.302Z,100106.00
2022-07-29T08:21:16.271Z,100107.97
2022-07-29T08:23:51.686Z,100098.63
2022-07-29T08:26:26.377Z,100101.53
2022-07-29T08:28:55.286Z,100098.84
2022-07-29T08:31:23.419Z,100099.47
2022-07-29T08:33:52.807Z,100100.88
2022-07-29T08:36:22.150Z,100105.88
2022-07-29T08:38:52.021Z,100094.72
2022-07-29T08:41:21.178Z,100094.66
2022-07-29T08:43:50.191Z,100091.94
2022-07-29T08:46:18.781Z,100096.03
2022-07-29T08:48:47.437Z,100093.28
2022-07-29T08:51:18.103Z,100094.28
2022-07-29T08:53:49.239Z,100096.47
2022-07-29T08:56:20.364Z,100088.53
2022-07-29T08:58:50.728Z,100085.91
2022-07-29T09:01:36.136Z,100084.87
2022-07-29T09:04:13.124Z,100086.16
2022-07-29T09:06:45.134Z,100088.81
2022-07-29T09:09:14.836Z,100084.28
2022-07-29T09:11:43.800Z,100087.22
2022-07-29T09:14:14.769Z,100087.50
2022-07-29T09:16:55.909Z,100087.78
2022-07-29T09:19:24.270Z,100083.19
2022-07-29T09:21:59.372Z,100079.44
2022-07-29T09:24:40.817Z,100072.91
2022-07-29T09:27:20.075Z,100072.81
2022-07-29T09:29:56.333Z,100067.63
2022-07-29T09:32:25.682Z,100063.75
2022-07-29T09:35:17.522Z,100068.00
2022-07-29T09:37:46.375Z,100065.94
2022-07-29T09:40:25.170Z,100063.47
2022-07-29T09:42:56.674Z,100057.25
2022-07-29T09:45:33.959Z,100055.62
2022-07-29T09:48:35.872Z,100048.47
2022-07-29T09:51:03.719Z,100051.84
2022-07-29T09:53:38.125Z,100046.63
2022-07-29T09:56:06.390Z,100047.66
2022-07-29T09:58:35.695Z,100044.97
2022-07-29T10:01:04.539Z,100039.97
2022-07-29T10:03:32.501Z,100038.94
2022-07-29T10:06:09.990Z,100035.78
2022-07-29T10:08:38.569Z,100026.41
2022-07-29T10:11:17.463Z,100037.06
2022-07-29T10:13:48.457Z,100032.47
2022-07-29T10:16:17.838Z,100028.88
2022-07-29T10:18:47.974Z,100033.28
2022-07-29T10:21:35.012Z,100030.09
2022-07-29T10:24:06.181Z,100023.41
2022-07-29T10:26:34.044Z,100031.38
2022-07-29T10:29:02.724Z,100033.00
2022-07-29T10:31:59.784Z,100020.81
2022-07-29T10:34:35.772Z,100027.78
2022-07-29T10:37:15.570Z,100025.50
2022-07-29T10:39:58.178Z,100019.44
2022-07-29T10:42:34.048Z,100006.94
2022-07-29T10:45:05.396Z,100016.72
2022-07-29T10:47:35.763Z,100015.97
2022-07-29T10:50:07.275Z,100015.91
2022-07-29T10:52:53.903Z,100009.66
2022-07-29T10:55:43.774Z,100003.59
2022-07-29T10:58:14.688Z,100008.41
2022-07-29T11:00:42.957Z,99998.28
2022-07-29T11:03:53.764Z,100008.25
2022-07-29T11:06:28.230Z,100004.47
2022-07-29T11:09:37.794Z,99991.59
2022-07-29T11:12:39.426Z,99996.72
2022-07-29T11:15:13.779Z,99998.56
2022-07-29T11:18:03.688Z,99986.88
2022-07-29T11:20:35.047Z,99978.31
2022-07-29T11:23:42.814Z,99980.31
2022-07-29T11:26:23.201Z,99983.59
2022-07-29T11:28:51.625Z,99982.94
2022-07-29T11:31:36.040Z,99975.50
2022-07-29T11:34:22.888Z,99965.56
2022-07-29T11:37:15.185Z,99968.31
2022-07-29T11:42:35.544Z,99953.28
2022-07-29T11:45:41.580Z,99959.66
2022-07-29T11:48:29.521Z,99949.72
2022-07-29T11:51:11.044Z,99950.66
2022-07-29T11:53:41.529Z,99946.97
2022-07-29T11:56:10.606Z,99937.00
2022-07-29T11:58:45.972Z,99946.44
2022-07-29T12:01:15.402Z,99941.59
2022-07-29T12:06:32.362Z,99949.56
2022-07-29T12:07:03.249Z,99949.34
2022-07-29T12:09:01.374Z,99944.66
2022-07-29T12:11:30.190Z,99944.38
2022-07-29T12:13:58.743Z,99942.22
2022-07-29T12:16:38.392Z,99938.94
2022-07-29T12:19:07.835Z,99936.56
2022-07-29T12:21:56.146Z,99931.87
2022-07-29T12:24:26.489Z,99931.53
2022-07-29T12:26:57.163Z,99927.25
2022-07-29T12:29:33.692Z,99919.84
2022-07-29T12:32:15.029Z,99912.78
2022-07-29T12:34:49.582Z,99911.59
2022-07-29T12:37:18.543Z,99911.63
2022-07-29T12:39:46.820Z,99907.09
2022-07-29T12:42:18.424Z,99902.31
2022-07-29T12:44:51.569Z,99905.81
2022-07-29T12:47:20.886Z,99902.56
2022-07-29T12:49:50.685Z,99895.81
2022-07-29T12:52:26.180Z,99899.50
2022-07-29T12:54:54.963Z,99883.31
2022-07-29T12:57:23.570Z,99889.31
2022-07-29T13:00:11.831Z,99889.16
2022-07-29T13:02:41.994Z,99877.28
2022-07-29T13:05:12.135Z,99880.38
2022-07-29T13:07:55.576Z,99874.47
2022-07-29T13:10:26.286Z,99877.25
2022-07-29T13:13:10.636Z,99871.28
2022-07-29T13:15:45.053Z,99871.28
2022-07-29T13:18:29.321Z,99869.63
2022-07-29T13:20:58.267Z,99862.66
2022-07-29T13:23:27.753Z,99867.50
2022-07-29T13:25:56.150Z,99863.72
2022-07-29T13:28:26.341Z,99858.25
2022-07-29T13:30:54.077Z,99861.84
2022-07-29T13:33:23.306Z,99855.34
2022-07-29T13:35:51.758Z,99855.31
2022-07-29T13:38:20.272Z,99852.19
2022-07-29T13:40:48.564Z,99845.38
2022-07-29T13:43:17.203Z,99846.34
2022-07-29T13:45:45.562Z,99843.31
2022-07-29T13:48:13.286Z,99845.22
2022-07-29T13:50:41.734Z,99838.78
2022-07-29T13:53:10.194Z,99840.00
2022-07-29T13:55:46.286Z,99839.19
2022-07-29T13:58:15.095Z,99837.22
2022-07-29T14:00:42.784Z,99825.28
2022-07-29T14:03:11.063Z,99826.94
2022-07-29T14:05:38.828Z,99817.63
2022-07-29T14:08:06.978Z,99814.09
2022-07-29T14:10:35.794Z,99816.41
2022-07-29T14:13:07.236Z,99811.03
2022-07-29T14:15:54.558Z,99805.81
2022-07-29T14:18:23.324Z,99804.03
2022-07-29T14:20:52.209Z,99807.91
2022-07-29T14:23:20.510Z,99806.97
2022-07-29T14:25:49.381Z,99795.28
2022-07-29T14:28:17.926Z,99803.66
2022-07-29T14:30:46.958Z,99803.09
2022-07-29T14:33:14.791Z,99811.47
2022-07-29T14:35:42.981Z,99807.69
2022-07-29T14:38:12.965Z,99804.34
2022-07-29T14:40:41.741Z,99798.34
2022-07-29T14:43:09.926Z,99795.50
2022-07-29T14:45:39.169Z,99788.91
2022-07-29T14:48:07.097Z,99783.84
2022-07-29T14:50:35.495Z,99784.56
2022-07-29T14:53:15.991Z,99786.81
2022-07-29T14:55:53.288Z,99775.22
2022-07-29T14:58:24.642Z,99770.09
2022-07-29T15:00:57.959Z,99769.09
2022-07-29T15:03:36.158Z,99769.75
2022-07-29T15:06:13.629Z,99763.94
2022-07-29T15:08:47.103Z,99760.75
2022-07-29T15:11:15.349Z,99767.31
2022-07-29T15:13:44.590Z,99761.31
2022-07-29T15:16:12.918Z,99764.16
2022-07-29T15:18:41.070Z,99764.19
2022-07-29T15:21:10.192Z,99760.50
2022-07-29T15:23:39.726Z,99755.78
2022-07-29T15:26:08.299Z,99762.25
2022-07-29T15:28:36.651Z,99755.34
2022-07-29T15:31:08.050Z,99757.19
2022-07-29T15:33:39.648Z,99756.66
2022-07-29T15:36:25.423Z,99750.97
2022-07-29T15:39:09.815Z,99761.78
2022-07-29T15:41:40.277Z,99744.41
2022-07-29T15:44:16.477Z,99750.75
2022-07-29T15:47:06.265Z,99749.06
2022-07-29T15:49:47.915Z,99743.19
2022-07-29T15:52:25.930Z,99740.28
2022-07-29T15:55:01.388Z,99746.47
2022-07-29T15:57:31.641Z,99741.19
2022-07-29T16:00:04.137Z,99749.13
2022-07-29T16:02:40.354Z,99739.75
2022-07-29T16:05:14.081Z,99743.50
2022-07-29T16:07:43.629Z,99748.56
2022-07-29T16:10:26.580Z,99734.19
2022-07-29T16:12:57.424Z,99741.16
2022-07-29T16:15:29.669Z,99736.06
2022-07-29T16:18:01.799Z,99736.38
2022-07-29T16:20:40.098Z,99738.44
2022-07-29T16:23:12.410Z,99733.87
2022-07-29T16:25:59.130Z,99734.03
2022-07-29T16:28:34.339Z,99728.16
2022-07-29T16:31:11.939Z,99727.22
2022-07-29T16:33:55.278Z,99721.53
2022-07-29T16:36:31.170Z,99724.28
2022-07-29T16:39:02.446Z,99719.31
2022-07-29T16:41:38.464Z,99723.75
2022-07-29T16:44:09.539Z,99724.00
2022-07-29T16:46:40.254Z,99720.09
2022-07-29T16:49:09.818Z,99716.91
2022-07-29T16:51:43.830Z,99720.59
2022-07-29T16:54:13.096Z,99729.09
2022-07-29T16:56:43.083Z,99727.81
2022-07-29T16:59:15.056Z,99721.91
2022-07-29T17:01:45.139Z,99727.00
2022-07-29T17:04:19.737Z,99718.41
2022-07-29T17:06:53.630Z,99718.78
2022-07-29T17:09:24.613Z,99714.22
2022-07-29T17:11:55.331Z,99715.69
2022-07-29T17:14:36.337Z,99723.62
2022-07-29T17:17:13.885Z,99722.97
2022-07-29T17:19:45.136Z,99731.78
2022-07-29T17:22:20.114Z,99728.91
2022-07-29T17:24:57.630Z,99736.56
2022-07-29T17:27:33.101Z,99726.56
2022-07-29T17:30:07.432Z,99720.56
2022-07-29T17:32:40.265Z,99725.78
2022-07-29T17:35:32.751Z,99729.91
2022-07-29T17:38:13.956Z,99730.12
2022-07-29T17:40:44.620Z,99730.34
2022-07-29T17:43:13.563Z,99725.22
2022-07-29T17:45:49.406Z,99722.06
2022-07-29T17:48:20.123Z,99725.59
2022-07-29T17:50:48.998Z,99717.69
2022-07-29T17:53:21.601Z,99731.59
2022-07-29T17:55:52.476Z,99734.16
2022-07-29T17:58:20.703Z,99731.44
2022-07-29T18:00:51.575Z,99725.84
2022-07-29T18:03:23.996Z,99729.38
2022-07-29T18:05:55.141Z,99728.31
2022-07-29T18:08:26.403Z,99737.03
2022-07-29T18:10:57.834Z,99737.25
2022-07-29T18:13:28.159Z,99741.41
2022-07-29T18:16:03.466Z,99742.09
2022-07-29T18:18:31.830Z,99742.22
2022-07-29T18:20:59.756Z,99743.38
2022-07-29T18:23:32.397Z,99743.59
2022-07-29T18:26:04.271Z,99748.50
2022-07-29T18:28:34.909Z,99742.59
2022-07-29T18:31:03.861Z,99750.00
2022-07-29T18:33:33.007Z,99751.09
2022-07-29T18:36:10.769Z,99756.91
2022-07-29T18:38:41.335Z,99757.00
2022-07-29T18:41:09.665Z,99757.16
2022-07-29T18:43:40.174Z,99757.47
2022-07-29T18:46:08.415Z,99762.25
2022-07-29T18:48:38.908Z,99759.44
2022-07-29T18:51:14.968Z,99760.88
2022-07-29T18:53:45.000Z,99765.25
2022-07-29T18:56:15.304Z,99767.28
2022-07-29T18:58:43.213Z,99768.69
2022-07-29T19:01:16.715Z,99769.47
2022-07-29T19:03:44.748Z,99766.56
2022-07-29T19:06:13.312Z,99771.72
2022-07-29T19:08:42.027Z,99773.22
2022-07-29T19:11:15.702Z,99774.03
2022-07-29T19:13:44.938Z,99779.78
2022-07-29T19:16:14.290Z,99783.75
2022-07-29T19:18:43.355Z,99781.81
2022-07-29T19:21:11.911Z,99781.81
2022-07-29T19:24:01.574Z,99789.97
2022-07-29T19:26:34.377Z,99783.84
2022-07-29T19:29:04.752Z,99781.63
2022-07-29T19:31:34.445Z,99779.75
2022-07-29T19:34:06.151Z,99800.22
2022-07-29T19:36:38.638Z,99804.84
2022-07-29T19:39:07.872Z,99790.25
2022-07-29T19:41:40.782Z,99793.66
2022-07-29T19:44:09.388Z,99791.72
2022-07-29T19:46:38.355Z,99792.63
2022-07-29T19:49:06.941Z,99782.84
2022-07-29T19:51:35.072Z,99787.53
2022-07-29T19:54:04.265Z,99790.25
2022-07-29T19:56:33.528Z,99780.34
2022-07-29T19:59:05.268Z,99772.72
2022-07-29T20:01:35.856Z,99775.38
2022-07-29T20:04:06.343Z,99780.16
2022-07-29T20:06:37.283Z,99780.06
2022-07-29T20:09:07.585Z,99770.84
2022-07-29T20:11:45.373Z,99772.81
2022-07-29T20:14:13.747Z,99772.78
2022-07-29T20:16:42.901Z,99770.50
2022-07-29T20:19:16.377Z,99772.22
2022-07-29T20:21:49.484Z,99777.88
2022-07-29T20:24:19.862Z,99782.53
2022-07-29T20:26:50.043Z,99779.87
2022-07-29T20:29:19.233Z,99782.28
2022-07-29T20:31:52.299Z,99779.91
2022-07-29T20:34:25.048Z,99789.34
2022-07-29T20:36:54.883Z,99789.66
2022-07-29T20:39:26.318Z,99794.28
2022-07-29T20:41:55.012Z,99797.78
2022-07-29T20:44:24.417Z,99802.66
2022-07-29T20:46:52.887Z,99798.00
2022-07-29T20:49:24.033Z,99801.44
2022-07-29T20:51:56.310Z,99807.03
2022-07-29T20:54:24.477Z,99814.44
2022-07-29T20:56:53.333Z,99813.72
2022-07-29T20:59:21.837Z,99815.19
2022-07-29T21:01:55.835Z,99816.16
2022-07-29T21:04:26.034Z,99812.34
2022-07-29T21:06:59.260Z,99817.13
2022-07-29T21:09:45.662Z,99820.91
2022-07-29T21:12:14.447Z,99822.09
2022-07-29T21:14:51.910Z,99826.94
2022-07-29T21:17:22.611Z,99826.88
2022-07-29T21:19:55.523Z,99818.13
2022-07-29T21:22:23.470Z,99829.12
2022-07-29T21:24:51.956Z,99825.37
2022-07-29T21:27:40.910Z,99841.63
2022-07-29T21:30:10.518Z,99838.38
2022-07-29T21:32:40.718Z,99837.31
2022-07-29T21:35:18.273Z,99833.50
2022-07-29T21:37:58.339Z,99840.66
2022-07-29T21:40:26.657Z,99845.53
2022-07-29T21:42:54.802Z,99846.81
2022-07-29T21:45:23.991Z,99849.66
2022-07-29T21:47:51.849Z,99846.19
2022-07-29T21:50:20.132Z,99842.16
2022-07-29T21:52:50.128Z,99839.16
2022-07-29T21:55:19.323Z,99849.37
2022-07-29T21:57:51.844Z,99845.53
2022-07-29T22:00:22.083Z,99858.59
2022-07-29T22:02:53.791Z,99854.56
2022-07-29T22:05:22.098Z,99858.28
2022-07-29T22:07:55.215Z,99854.41
2022-07-29T22:10:32.487Z,99863.13
2022-07-29T22:13:03.728Z,99857.03
2022-07-29T22:15:33.139Z,99858.91
2022-07-29T22:18:05.610Z,99861.34
2022-07-29T22:20:34.860Z,99860.69
2022-07-29T22:23:05.465Z,99868.91
2022-07-29T22:25:37.049Z,99867.06
2022-07-29T22:28:06.820Z,99880.31
2022-07-29T22:30:38.056Z,99876.03
2022-07-29T22:33:09.454Z,99871.53
2022-07-29T22:35:48.745Z,99871.78
2022-07-29T22:38:20.943Z,99874.31
2022-07-29T22:40:52.171Z,99866.22
2022-07-29T22:43:23.459Z,99865.34
2022-07-29T22:45:54.112Z,99867.12
2022-07-29T22:48:23.937Z,99869.19
2022-07-29T22:50:53.245Z,99863.41
2022-07-29T22:53:23.352Z,99867.41
2022-07-29T22:55:56.787Z,99863.00
2022-07-29T22:58:26.463Z,99862.66
2022-07-29T23:00:57.009Z,99868.34
2022-07-29T23:03:27.885Z,99864.31
2022-07-29T23:06:02.596Z,99860.06
2022-07-29T23:08:32.792Z,99845.16
2022-07-29T23:11:04.942Z,99848.97
2022-07-29T23:13:34.592Z,99852.81
2022-07-29T23:16:05.511Z,99850.22
2022-07-29T23:18:38.489Z,99849.31
2022-07-29T23:21:12.686Z,99845.09
2022-07-29T23:23:41.817Z,99847.44
2022-07-29T23:26:17.218Z,99846.91
2022-07-29T23:28:47.683Z,99840.41
2022-07-29T23:31:21.343Z,99840.91
2022-07-29T23:33:55.920Z,99836.88
2022-07-29T23:36:31.871Z,99829.91
2022-07-29T23:39:04.289Z,99830.66
2022-07-29T23:41:35.760Z,99834.19
2022-07-29T23:44:06.581Z,99825.84
2022-07-29T23:46:36.194Z,99821.16
2022-07-29T23:49:08.496Z,99818.28
2022-07-29T23:51:38.564Z,99822.94
2022-07-29T23:54:08.435Z,99819.38
2022-07-29T23:56:40.924Z,99808.38
2022-07-29T23:59:10.820Z,99819.03
